Time;durP1;ratioP1;P1;durP2;ratioP2;P2;SDS_P1;SDS_P2;PMS_P1;PMS_P2;Temp;Humidity;BMP_temperature;BMP_pressure;BME280_temperature;BME280_humidity;BME280_pressure;Samples;Min_cycle;Max_cycle;Signal;HPM_P1;HPM_P2
2022/05/09 00:02:24;;;;;;;22.10;20.80;;;;;;;;;;5017488;28;20405;-96
2022/05/09 00:04:53;;;;;;;22.03;20.53;;;;;;;;;;5006224;28;20452;-96
2022/05/09 00:07:24;;;;;;;22.30;20.77;;;;;;;;;;5017433;28;20444;-96
2022/05/09 00:09:51;;;;;;;22.00;20.60;;;;;;;;;;5035919;28;20434;-96
2022/05/09 00:12:19;;;;;;;21.33;20.10;;;;;;;;;;5035723;28;20467;-96
2022/05/09 00:14:47;;;;;;;22.23;20.63;;;;;;;;;;5036571;28;20435;-96
2022/05/09 00:17:15;;;;;;;21.50;20.30;;;;;;;;;;5100946;23;20486;-96
2022/05/09 00:19:43;;;;;;;22.23;20.67;;;;;;;;;;5117215;28;20451;-96
2022/05/09 00:22:11;;;;;;;21.80;20.50;;;;;;;;;;5118074;28;20419;-96
2022/05/09 00:24:40;;;;;;;21.90;20.57;;;;;;;;;;5497176;22;20480;-96
2022/05/09 00:29:44;;;;;;;23.80;22.37;;;;;;;;;;5059009;22;20523;-96
2022/05/09 00:32:11;;;;;;;22.77;20.77;;;;;;;;;;5037907;28;20485;-96
2022/05/09 00:34:39;;;;;;;22.43;20.93;;;;;;;;;;5037499;28;20484;-96
2022/05/09 00:37:07;;;;;;;22.93;21.00;;;;;;;;;;5033177;28;20411;-96
2022/05/09 00:39:35;;;;;;;22.17;20.27;;;;;;;;;;5057341;28;20459;-96
2022/05/09 00:42:09;;;;;;;21.37;20.20;;;;;;;;;;5057007;28;20392;-96
2022/05/09 00:44:38;;;;;;;23.63;21.27;;;;;;;;;;5056209;28;20413;-96
2022/05/09 00:47:05;;;;;;;22.97;21.20;;;;;;;;;;5054665;28;20442;-96
2022/05/09 00:49:34;;;;;;;22.33;21.10;;;;;;;;;;5039330;28;20802;-96
2022/05/09 00:52:04;;;;;;;21.93;20.67;;;;;;;;;;5038524;28;20430;-96
2022/05/09 00:54:34;;;;;;;22.07;20.83;;;;;;;;;;5037784;28;20433;-96
2022/05/09 00:57:07;;;;;;;22.03;20.40;;;;;;;;;;5039224;28;20441;-96
2022/05/09 00:59:36;;;;;;;22.20;20.70;;;;;;;;;;5021753;28;20836;-96
2022/05/09 01:02:03;;;;;;;21.53;20.10;;;;;;;;;;5036727;28;20444;-95
2022/05/09 01:04:34;;;;;;;23.33;21.83;;;;;;;;;;5033908;28;20460;-95
2022/05/09 01:07:01;;;;;;;22.90;21.43;;;;;;;;;;5034235;28;20575;-95
2022/05/09 01:09:29;;;;;;;22.70;21.20;;;;;;;;;;5034258;28;20447;-95
2022/05/09 01:11:56;;;;;;;22.23;20.83;;;;;;;;;;5034100;28;20439;-94
2022/05/09 01:14:26;;;;;;;23.90;22.03;;;;;;;;;;5039505;28;20424;-96
2022/05/09 01:16:54;;;;;;;22.73;21.43;;;;;;;;;;5044831;28;20411;-96
2022/05/09 01:19:28;;;;;;;22.30;21.10;;;;;;;;;;5043757;28;20930;-96
2022/05/09 01:21:58;;;;;;;23.27;21.60;;;;;;;;;;5038850;28;20500;-96
2022/05/09 01:24:27;;;;;;;22.77;21.27;;;;;;;;;;5041393;28;20430;-96
2022/05/09 01:26:55;;;;;;;22.53;21.07;;;;;;;;;;5038206;28;20418;-96
2022/05/09 01:29:25;;;;;;;21.97;20.53;;;;;;;;;;5037792;28;20487;-96
2022/05/09 01:31:54;;;;;;;24.17;22.03;;;;;;;;;;5037707;28;20447;-96
2022/05/09 01:34:22;;;;;;;22.87;21.20;;;;;;;;;;5038249;28;20522;-96
2022/05/09 01:36:54;;;;;;;23.30;21.60;;;;;;;;;;5039234;28;20411;-96
2022/05/09 01:39:24;;;;;;;22.70;21.30;;;;;;;;;;5039269;28;20522;-96
2022/05/09 01:41:52;;;;;;;22.00;20.67;;;;;;;;;;5041328;28;20440;-96
2022/05/09 01:44:19;;;;;;;23.63;21.73;;;;;;;;;;5040820;28;20931;-96
2022/05/09 01:49:34;;;;;;;22.37;20.83;;;;;;;;;;5039827;28;20415;-96
2022/05/09 01:52:03;;;;;;;22.60;21.30;;;;;;;;;;5022464;28;20467;-96
2022/05/09 01:54:32;;;;;;;22.87;21.47;;;;;;;;;;5040795;28;20462;-96
2022/05/09 01:56:59;;;;;;;22.77;21.30;;;;;;;;;;5039622;28;20403;-95
2022/05/09 01:59:27;;;;;;;22.27;21.07;;;;;;;;;;5023185;28;20422;-96
2022/05/09 02:01:57;;;;;;;23.17;21.33;;;;;;;;;;5040554;28;20449;-96
2022/05/09 02:04:25;;;;;;;21.93;20.57;;;;;;;;;;5042034;28;20414;-96
2022/05/09 02:06:52;;;;;;;21.50;20.30;;;;;;;;;;5046978;28;20463;-96
2022/05/09 02:09:20;;;;;;;22.80;21.40;;;;;;;;;;5045097;28;20443;-96
2022/05/09 02:11:49;;;;;;;21.43;20.33;;;;;;;;;;5045899;28;20486;-96
2022/05/09 02:14:17;;;;;;;22.40;21.10;;;;;;;;;;5043404;28;20411;-96
2022/05/09 02:16:44;;;;;;;22.70;21.40;;;;;;;;;;5042116;28;20845;-96
2022/05/09 02:19:12;;;;;;;23.10;21.20;;;;;;;;;;5042857;28;20433;-96
2022/05/09 02:21:39;;;;;;;21.77;20.37;;;;;;;;;;5042815;28;20462;-96
2022/05/09 02:24:07;;;;;;;21.53;20.30;;;;;;;;;;5044269;28;20794;-96
2022/05/09 02:26:37;;;;;;;22.10;20.63;;;;;;;;;;5043216;28;20429;-96
2022/05/09 02:29:06;;;;;;;22.33;20.83;;;;;;;;;;5044433;28;20460;-96
2022/05/09 02:31:34;;;;;;;20.90;19.60;;;;;;;;;;5045923;28;20418;-96
2022/05/09 02:34:02;;;;;;;22.10;20.80;;;;;;;;;;5043795;28;20439;-96
2022/05/09 02:36:30;;;;;;;21.53;20.23;;;;;;;;;;5027565;28;20821;-96
2022/05/09 02:38:58;;;;;;;22.50;21.23;;;;;;;;;;5026479;28;20452;-96
2022/05/09 02:41:25;;;;;;;22.07;20.50;;;;;;;;;;5043336;28;20458;-96
2022/05/09 02:43:52;;;;;;;22.43;20.90;;;;;;;;;;5042304;28;20418;-96
2022/05/09 02:46:22;;;;;;;23.00;21.43;;;;;;;;;;5042924;28;20422;-96
2022/05/09 02:48:49;;;;;;;22.60;21.27;;;;;;;;;;5043372;28;20422;-96
2022/05/09 02:51:17;;;;;;;22.40;21.00;;;;;;;;;;5043743;28;20432;-96
2022/05/09 02:53:44;;;;;;;21.13;19.73;;;;;;;;;;5024965;28;20433;-96
2022/05/09 02:56:12;;;;;;;23.27;21.80;;;;;;;;;;5025916;28;20449;-96
2022/05/09 02:58:41;;;;;;;20.53;19.33;;;;;;;;;;5046274;28;20424;-96
2022/05/09 03:01:09;;;;;;;21.40;20.20;;;;;;;;;;5045818;28;20475;-96
2022/05/09 03:06:22;;;;;;;21.47;19.90;;;;;;;;;;5048571;28;20466;-96
2022/05/09 03:08:50;;;;;;;21.43;20.20;;;;;;;;;;5046884;28;20434;-96
2022/05/09 03:11:18;;;;;;;21.27;20.00;;;;;;;;;;5046924;28;20403;-96
2022/05/09 03:13:45;;;;;;;21.53;20.13;;;;;;;;;;5029842;28;20431;-96
2022/05/09 03:16:13;;;;;;;22.30;21.00;;;;;;;;;;5047245;28;20441;-96
2022/05/09 03:18:42;;;;;;;23.03;21.53;;;;;;;;;;5048578;28;20407;-96
2022/05/09 03:21:10;;;;;;;21.90;20.23;;;;;;;;;;5050671;28;20980;-96
2022/05/09 03:23:38;;;;;;;21.10;19.60;;;;;;;;;;5032250;28;20461;-96
2022/05/09 03:26:05;;;;;;;21.20;19.83;;;;;;;;;;5051138;28;20772;-96
2022/05/09 03:28:33;;;;;;;22.50;21.17;;;;;;;;;;5050099;28;20437;-96
2022/05/09 03:31:01;;;;;;;21.20;19.83;;;;;;;;;;5032779;28;20535;-96
2022/05/09 03:33:28;;;;;;;21.90;20.70;;;;;;;;;;5029826;28;20449;-96
2022/05/09 03:35:59;;;;;;;22.70;21.10;;;;;;;;;;5046915;28;20440;-96
2022/05/09 03:38:26;;;;;;;22.83;21.43;;;;;;;;;;5046493;28;20450;-96
2022/05/09 03:40:54;;;;;;;22.20;20.90;;;;;;;;;;5047166;28;20464;-96
2022/05/09 03:43:21;;;;;;;22.40;21.00;;;;;;;;;;5029532;28;20461;-96
2022/05/09 03:45:50;;;;;;;22.60;21.20;;;;;;;;;;5046296;28;20418;-96
2022/05/09 03:48:17;;;;;;;21.43;20.30;;;;;;;;;;5045162;28;20440;-96
2022/05/09 03:50:45;;;;;;;22.57;20.40;;;;;;;;;;5064498;23;20986;-96
2022/05/09 03:53:14;;;;;;;23.23;21.57;;;;;;;;;;5055964;28;20509;-96
2022/05/09 03:55:41;;;;;;;21.97;20.70;;;;;;;;;;5055835;28;20422;-96
2022/05/09 03:58:09;;;;;;;22.47;21.20;;;;;;;;;;5055563;28;20414;-96
2022/05/09 04:00:36;;;;;;;21.90;20.50;;;;;;;;;;5055779;28;20483;-96
2022/05/09 04:03:04;;;;;;;22.13;20.83;;;;;;;;;;5054598;28;20421;-96
2022/05/09 04:05:32;;;;;;;22.97;21.43;;;;;;;;;;5054958;28;20428;-96
2022/05/09 04:08:00;;;;;;;21.47;19.80;;;;;;;;;;5054680;28;20478;-96
2022/05/09 04:10:31;;;;;;;21.20;20.00;;;;;;;;;;5055330;28;20418;-96
2022/05/09 04:12:58;;;;;;;21.07;19.80;;;;;;;;;;5053916;28;20509;-96
2022/05/09 04:18:11;;;;;;;21.77;20.30;;;;;;;;;;5055180;28;20431;-96
2022/05/09 04:20:39;;;;;;;21.40;20.20;;;;;;;;;;5053552;28;20457;-96
2022/05/09 04:23:07;;;;;;;20.73;19.33;;;;;;;;;;5054765;28;20447;-96
2022/05/09 04:25:36;;;;;;;21.47;20.20;;;;;;;;;;5054925;28;20446;-96
2022/05/09 04:28:05;;;;;;;22.23;20.63;;;;;;;;;;5054153;28;20414;-96
2022/05/09 04:30:34;;;;;;;22.20;20.90;;;;;;;;;;5053562;28;20426;-96
2022/05/09 04:33:01;;;;;;;21.50;20.17;;;;;;;;;;5054745;28;20414;-96
2022/05/09 04:35:29;;;;;;;22.00;20.33;;;;;;;;;;5054540;28;20414;-96
2022/05/09 04:37:58;;;;;;;21.73;20.30;;;;;;;;;;5054409;28;20451;-95
2022/05/09 04:40:27;;;;;;;22.30;21.00;;;;;;;;;;5054195;28;20482;-96
2022/05/09 04:42:57;;;;;;;22.60;20.90;;;;;;;;;;5054629;28;20505;-96
2022/05/09 04:45:25;;;;;;;23.17;21.37;;;;;;;;;;5054661;28;20418;-96
2022/05/09 04:47:52;;;;;;;22.03;20.77;;;;;;;;;;5054440;28;20459;-95
2022/05/09 04:50:20;;;;;;;22.23;20.87;;;;;;;;;;5065385;28;20478;-96
2022/05/09 04:52:48;;;;;;;22.17;20.93;;;;;;;;;;5074542;28;20420;-96
2022/05/09 04:55:16;;;;;;;23.07;21.77;;;;;;;;;;5074898;28;20450;-96
2022/05/09 04:57:44;;;;;;;23.83;22.53;;;;;;;;;;5073958;28;20502;-96
2022/05/09 05:00:14;;;;;;;23.43;21.90;;;;;;;;;;5074149;28;20887;-96
2022/05/09 05:02:42;;;;;;;23.20;21.90;;;;;;;;;;5074813;28;21138;-96
2022/05/09 05:05:10;;;;;;;23.20;21.70;;;;;;;;;;5057567;28;20428;-95
2022/05/09 05:07:37;;;;;;;24.10;22.70;;;;;;;;;;5073708;28;20585;-96
2022/05/09 05:10:06;;;;;;;22.87;21.57;;;;;;;;;;5056063;28;20413;-96
2022/05/09 05:12:33;;;;;;;22.47;21.00;;;;;;;;;;5074293;28;20413;-96
2022/05/09 05:15:01;;;;;;;22.50;21.13;;;;;;;;;;5074997;28;20420;-96
2022/05/09 05:17:30;;;;;;;22.90;21.40;;;;;;;;;;5057738;28;20450;-96
2022/05/09 05:23:00;;;;;;;22.23;20.83;;;;;;;;;;5074749;28;20927;-96
2022/05/09 05:25:29;;;;;;;22.27;20.87;;;;;;;;;;5074638;28;20458;-96
2022/05/09 05:27:57;;;;;;;22.20;20.60;;;;;;;;;;5075103;28;20417;-96
2022/05/09 05:30:24;;;;;;;22.73;21.27;;;;;;;;;;5074226;28;20417;-94
2022/05/09 05:32:55;;;;;;;22.30;21.07;;;;;;;;;;5073506;28;20893;-93
2022/05/09 05:35:24;;;;;;;22.50;21.20;;;;;;;;;;5073848;28;20479;-94
2022/05/09 05:37:51;;;;;;;22.73;21.43;;;;;;;;;;5074073;28;20458;-93
2022/05/09 05:40:18;;;;;;;21.70;20.50;;;;;;;;;;5074987;28;20405;-93
2022/05/09 05:42:47;;;;;;;21.77;20.57;;;;;;;;;;5077233;28;20934;-92
2022/05/09 05:45:16;;;;;;;21.33;20.03;;;;;;;;;;5077962;28;20459;-94
2022/05/09 05:47:44;;;;;;;21.47;20.27;;;;;;;;;;5078813;28;20453;-93
2022/05/09 05:50:14;;;;;;;23.10;21.50;;;;;;;;;;5077470;28;20504;-93
2022/05/09 05:52:41;;;;;;;21.97;20.67;;;;;;;;;;5079235;28;20920;-94
2022/05/09 05:55:10;;;;;;;22.20;20.70;;;;;;;;;;5060783;28;20441;-94
2022/05/09 05:57:38;;;;;;;22.77;20.87;;;;;;;;;;5077791;28;20492;-93
2022/05/09 06:00:07;;;;;;;22.07;20.70;;;;;;;;;;5076900;28;20477;-93
2022/05/09 06:02:37;;;;;;;21.87;20.57;;;;;;;;;;5080962;28;20482;-96
2022/05/09 06:05:05;;;;;;;22.20;20.53;;;;;;;;;;5063353;28;20425;-96
2022/05/09 06:07:34;;;;;;;22.27;20.90;;;;;;;;;;5080556;28;20470;-96
2022/05/09 06:10:01;;;;;;;22.30;21.00;;;;;;;;;;5079002;28;20462;-96
2022/05/09 06:12:29;;;;;;;21.97;20.67;;;;;;;;;;5077946;28;20462;-96
2022/05/09 06:17:41;;;;;;;22.73;21.23;;;;;;;;;;5078270;28;20474;-96
2022/05/09 06:20:09;;;;;;;23.07;21.43;;;;;;;;;;5077816;28;20432;-94
2022/05/09 06:22:39;;;;;;;22.20;20.30;;;;;;;;;;5077037;28;20492;-95
2022/05/09 06:25:07;;;;;;;22.53;21.23;;;;;;;;;;5058708;28;20859;-95
2022/05/09 06:27:35;;;;;;;22.03;20.60;;;;;;;;;;5077034;28;20835;-93
2022/05/09 06:30:02;;;;;;;22.00;20.80;;;;;;;;;;5077268;28;20441;-93
2022/05/09 06:32:30;;;;;;;22.03;20.83;;;;;;;;;;5076782;28;20825;-93
2022/05/09 06:34:57;;;;;;;22.47;21.07;;;;;;;;;;5076858;28;20446;-91
2022/05/09 06:37:28;;;;;;;22.07;20.47;;;;;;;;;;5076208;28;20451;-89
2022/05/09 06:39:57;;;;;;;22.70;21.17;;;;;;;;;;5076592;28;20424;-90
2022/05/09 06:42:25;;;;;;;22.50;21.30;;;;;;;;;;5076617;28;20516;-92
2022/05/09 06:44:52;;;;;;;21.57;20.37;;;;;;;;;;5077272;28;20424;-91
2022/05/09 06:47:19;;;;;;;21.63;20.43;;;;;;;;;;5078145;28;20409;-96
2022/05/09 06:49:47;;;;;;;22.07;20.77;;;;;;;;;;5057496;28;20462;-94
2022/05/09 06:52:14;;;;;;;22.20;20.90;;;;;;;;;;5055925;28;20763;-94
2022/05/09 06:54:41;;;;;;;21.77;20.50;;;;;;;;;;5056080;28;20435;-91
2022/05/09 06:57:10;;;;;;;21.67;20.47;;;;;;;;;;5056019;28;20422;-91
2022/05/09 06:59:37;;;;;;;22.03;20.70;;;;;;;;;;5055559;28;20414;-91
2022/05/09 07:02:05;;;;;;;23.30;21.90;;;;;;;;;;5057253;28;20473;-91
2022/05/09 07:04:33;;;;;;;22.07;20.77;;;;;;;;;;5055640;28;20910;-90
2022/05/09 07:07:00;;;;;;;22.83;21.33;;;;;;;;;;5056033;28;20503;-90
2022/05/09 07:09:27;;;;;;;23.07;21.80;;;;;;;;;;5056020;28;20430;-90
2022/05/09 07:11:54;;;;;;;22.87;21.57;;;;;;;;;;5055610;28;20799;-89
2022/05/09 07:14:24;;;;;;;23.17;21.57;;;;;;;;;;5055787;28;20406;-89
2022/05/09 07:16:51;;;;;;;22.57;21.27;;;;;;;;;;5055462;28;20438;-90
2022/05/09 07:19:19;;;;;;;22.47;21.17;;;;;;;;;;5038746;28;20442;-89
2022/05/09 07:21:46;;;;;;;21.97;20.77;;;;;;;;;;5055969;28;20465;-92
2022/05/09 07:24:14;;;;;;;22.70;21.40;;;;;;;;;;5056135;28;20473;-91
2022/05/09 07:26:41;;;;;;;23.30;22.00;;;;;;;;;;5056488;28;20458;-89
2022/05/09 07:29:09;;;;;;;22.27;21.10;;;;;;;;;;5058604;28;20455;-90
2022/05/09 07:31:38;;;;;;;22.77;21.30;;;;;;;;;;5056361;28;20856;-89
2022/05/09 07:34:05;;;;;;;21.10;20.00;;;;;;;;;;5056393;28;20466;-90
2022/05/09 07:36:33;;;;;;;21.27;19.90;;;;;;;;;;5055978;28;20406;-90
2022/05/09 07:39:00;;;;;;;21.77;20.37;;;;;;;;;;5056100;28;20525;-90
2022/05/09 07:41:28;;;;;;;21.80;20.70;;;;;;;;;;5056700;28;20449;-91
2022/05/09 07:43:56;;;;;;;21.70;20.50;;;;;;;;;;5057818;28;20864;-95
2022/05/09 07:46:23;;;;;;;20.63;19.43;;;;;;;;;;5037617;28;20456;-92
2022/05/09 07:48:53;;;;;;;21.47;20.27;;;;;;;;;;5055264;28;20439;-89
2022/05/09 07:51:21;;;;;;;20.80;19.60;;;;;;;;;;5054982;28;20470;-88
2022/05/09 07:53:48;;;;;;;21.83;20.63;;;;;;;;;;5055282;28;20433;-88
2022/05/09 07:56:16;;;;;;;21.67;20.30;;;;;;;;;;5053630;28;20426;-91
2022/05/09 07:58:43;;;;;;;21.97;20.40;;;;;;;;;;5055617;28;20757;-91
2022/05/09 08:01:11;;;;;;;22.27;20.67;;;;;;;;;;5055281;28;20836;-92
2022/05/09 08:03:38;;;;;;;21.50;20.20;;;;;;;;;;5055076;28;20916;-91
2022/05/09 08:06:08;;;;;;;21.43;20.23;;;;;;;;;;5054822;28;20437;-90
2022/05/09 08:08:38;;;;;;;21.63;20.33;;;;;;;;;;5055227;28;20438;-88
2022/05/09 08:11:06;;;;;;;21.33;19.83;;;;;;;;;;5055166;28;20461;-93
2022/05/09 08:13:34;;;;;;;22.70;21.10;;;;;;;;;;5055971;28;20435;-96
2022/05/09 08:16:02;;;;;;;21.43;20.13;;;;;;;;;;5037920;28;20796;-94
2022/05/09 08:18:31;;;;;;;22.97;21.60;;;;;;;;;;5055873;28;20460;-89
2022/05/09 08:20:59;;;;;;;22.23;20.47;;;;;;;;;;5054453;28;20418;-89
2022/05/09 08:23:30;;;;;;;22.70;21.20;;;;;;;;;;5056358;28;20483;-94
2022/05/09 08:25:58;;;;;;;22.43;21.00;;;;;;;;;;5055777;28;20470;-96
2022/05/09 08:28:25;;;;;;;22.23;20.93;;;;;;;;;;5039180;28;20834;-95
2022/05/09 08:30:54;;;;;;;22.53;21.13;;;;;;;;;;5056028;28;20448;-95
2022/05/09 08:33:24;;;;;;;22.40;20.93;;;;;;;;;;5055934;28;20917;-95
2022/05/09 08:35:52;;;;;;;22.17;20.77;;;;;;;;;;5055554;28;20464;-94
2022/05/09 08:38:20;;;;;;;23.47;22.00;;;;;;;;;;5055075;28;20426;-94
2022/05/09 08:40:53;;;;;;;21.77;20.53;;;;;;;;;;5055557;28;20430;-94
2022/05/09 08:43:28;;;;;;;21.90;20.70;;;;;;;;;;5054924;28;20472;-93
2022/05/09 08:46:01;;;;;;;22.47;20.97;;;;;;;;;;5055455;28;20471;-94
2022/05/09 08:48:34;;;;;;;22.87;21.50;;;;;;;;;;5056641;28;20421;-93
2022/05/09 08:51:09;;;;;;;23.30;22.00;;;;;;;;;;5054550;28;20486;-94
2022/05/09 08:53:38;;;;;;;22.67;21.17;;;;;;;;;;5053475;28;20457;-95
2022/05/09 08:56:09;;;;;;;22.50;20.57;;;;;;;;;;5053974;28;20467;-94
2022/05/09 08:58:40;;;;;;;22.47;21.07;;;;;;;;;;5053910;28;20423;-95
2022/05/09 09:01:13;;;;;;;21.60;20.40;;;;;;;;;;5054659;28;20459;-95
2022/05/09 09:03:43;;;;;;;22.33;20.77;;;;;;;;;;5054084;28;20464;-95
2022/05/09 09:06:15;;;;;;;23.20;21.60;;;;;;;;;;5053244;28;20475;-96
2022/05/09 09:08:53;;;;;;;22.77;21.00;;;;;;;;;;5054101;28;20409;-95
2022/05/09 09:11:33;;;;;;;21.70;20.40;;;;;;;;;;5053614;28;20795;-95
2022/05/09 09:14:06;;;;;;;21.83;20.53;;;;;;;;;;5055858;28;20435;-96
2022/05/09 09:16:39;;;;;;;22.43;21.10;;;;;;;;;;5059490;28;20428;-94
2022/05/09 09:19:24;;;;;;;22.83;21.43;;;;;;;;;;5057896;28;20435;-93
2022/05/09 09:21:55;;;;;;;22.27;20.90;;;;;;;;;;5058105;28;20486;-93
2022/05/09 09:24:29;;;;;;;23.03;21.43;;;;;;;;;;5057948;28;20489;-94
2022/05/09 09:27:02;;;;;;;22.50;20.70;;;;;;;;;;5058236;28;20417;-91
2022/05/09 09:29:33;;;;;;;22.07;20.67;;;;;;;;;;5057467;28;20902;-88
2022/05/09 09:32:02;;;;;;;22.40;21.07;;;;;;;;;;5057938;28;20908;-90
2022/05/09 09:34:34;;;;;;;23.10;21.60;;;;;;;;;;5057700;28;20527;-93
2022/05/09 09:37:04;;;;;;;23.53;21.60;;;;;;;;;;5057044;28;20452;-95
2022/05/09 09:39:32;;;;;;;23.67;22.00;;;;;;;;;;5060052;28;20471;-92
2022/05/09 09:42:00;;;;;;;22.90;21.20;;;;;;;;;;5059355;28;20461;-94
2022/05/09 09:44:29;;;;;;;23.13;21.73;;;;;;;;;;5057548;28;20430;-89
2022/05/09 09:47:05;;;;;;;23.07;21.60;;;;;;;;;;5057611;28;20426;-90
2022/05/09 09:49:33;;;;;;;22.20;20.83;;;;;;;;;;5057092;28;20870;-89
2022/05/09 09:52:01;;;;;;;21.70;20.40;;;;;;;;;;5057019;28;20464;-89
2022/05/09 09:54:29;;;;;;;22.13;20.70;;;;;;;;;;5039453;28;20443;-89
2022/05/09 09:56:56;;;;;;;22.43;21.03;;;;;;;;;;5057182;28;20447;-89
2022/05/09 09:59:26;;;;;;;22.80;21.40;;;;;;;;;;5057198;28;20435;-90
2022/05/09 10:02:08;;;;;;;23.87;22.27;;;;;;;;;;5056878;28;20531;-90
2022/05/09 10:04:35;;;;;;;23.17;21.60;;;;;;;;;;5056114;28;20544;-90
2022/05/09 10:07:04;;;;;;;22.97;21.57;;;;;;;;;;5056889;28;21020;-92
2022/05/09 10:09:35;;;;;;;22.40;21.03;;;;;;;;;;5056609;28;20472;-92
2022/05/09 10:12:16;;;;;;;23.13;21.23;;;;;;;;;;5037245;28;20443;-93
2022/05/09 10:14:45;;;;;;;22.20;20.90;;;;;;;;;;5036919;28;20507;-93
2022/05/09 10:17:17;;;;;;;22.60;21.20;;;;;;;;;;5037368;28;21010;-94
2022/05/09 10:19:45;;;;;;;22.63;21.23;;;;;;;;;;5044407;28;20436;-80
2022/05/09 10:24:58;;;;;;;22.73;21.27;;;;;;;;;;5020467;28;20394;-82
2022/05/09 10:27:27;;;;;;;24.13;22.40;;;;;;;;;;5034903;28;20828;-83
2022/05/09 10:29:57;;;;;;;23.03;21.50;;;;;;;;;;5034913;28;20436;-82
2022/05/09 10:32:27;;;;;;;24.10;22.30;;;;;;;;;;5035212;28;20440;-81
2022/05/09 10:34:56;;;;;;;22.97;21.47;;;;;;;;;;5035408;28;20440;-82
2022/05/09 10:37:25;;;;;;;24.10;22.50;;;;;;;;;;5034934;28;20418;-82
2022/05/09 10:39:55;;;;;;;24.33;22.93;;;;;;;;;;5035107;28;20441;-81
2022/05/09 10:42:27;;;;;;;24.00;22.30;;;;;;;;;;5035199;28;20491;-82
2022/05/09 10:45:02;;;;;;;23.93;22.50;;;;;;;;;;5035115;28;20483;-82
2022/05/09 10:47:32;;;;;;;23.70;22.00;;;;;;;;;;5035146;28;20437;-81
2022/05/09 10:50:03;;;;;;;23.20;21.80;;;;;;;;;;5034435;28;20898;-82
2022/05/09 10:52:35;;;;;;;23.17;21.87;;;;;;;;;;5034637;28;20431;-81
2022/05/09 10:55:07;;;;;;;23.73;22.43;;;;;;;;;;5034548;28;20440;-81
2022/05/09 10:57:38;;;;;;;23.70;22.10;;;;;;;;;;5037651;28;20481;-91
2022/05/09 11:00:11;;;;;;;23.23;21.83;;;;;;;;;;5041407;28;20458;-87
2022/05/09 11:02:40;;;;;;;24.03;22.33;;;;;;;;;;5035484;28;20484;-90
2022/05/09 11:05:08;;;;;;;23.93;22.43;;;;;;;;;;5036168;28;20553;-87
2022/05/09 11:07:39;;;;;;;23.13;21.73;;;;;;;;;;5035992;28;20454;-90
2022/05/09 11:10:15;;;;;;;22.37;20.97;;;;;;;;;;5035596;28;20411;-87
2022/05/09 11:12:55;;;;;;;23.57;22.17;;;;;;;;;;5035906;28;20834;-89
2022/05/09 11:15:29;;;;;;;22.67;21.37;;;;;;;;;;5018717;28;20427;-88
2022/05/09 11:18:02;;;;;;;22.60;21.40;;;;;;;;;;5018242;28;20426;-89
2022/05/09 11:20:32;;;;;;;23.00;21.60;;;;;;;;;;5035801;28;20462;-89
2022/05/09 11:23:04;;;;;;;23.10;21.50;;;;;;;;;;5035653;28;20538;-90
2022/05/09 11:25:38;;;;;;;23.50;22.00;;;;;;;;;;5035543;28;20430;-94
2022/05/09 11:28:12;;;;;;;23.30;22.00;;;;;;;;;;5035907;28;20433;-92
2022/05/09 11:30:42;;;;;;;22.93;21.50;;;;;;;;;;5050394;28;20433;-94
2022/05/09 11:33:17;;;;;;;24.30;22.80;;;;;;;;;;5055423;28;20787;-94
2022/05/09 11:35:46;;;;;;;24.10;22.70;;;;;;;;;;5055417;28;20464;-93
2022/05/09 11:38:28;;;;;;;24.63;23.07;;;;;;;;;;5054529;28;20410;-94
2022/05/09 11:40:58;;;;;;;23.70;22.20;;;;;;;;;;5052977;28;20450;-94
2022/05/09 11:43:32;;;;;;;23.63;22.13;;;;;;;;;;5055524;28;20457;-93
2022/05/09 11:46:17;;;;;;;24.70;23.00;;;;;;;;;;5056363;28;20435;-94
2022/05/09 11:48:53;;;;;;;23.50;22.10;;;;;;;;;;5055826;28;20422;-93
2022/05/09 11:51:26;;;;;;;23.73;22.30;;;;;;;;;;5055310;28;20484;-94
2022/05/09 11:53:59;;;;;;;24.57;22.87;;;;;;;;;;5037763;28;20489;-93
2022/05/09 11:56:27;;;;;;;23.77;22.37;;;;;;;;;;5055192;28;20438;-94
2022/05/09 11:58:54;;;;;;;24.47;22.70;;;;;;;;;;5037768;28;20967;-93
2022/05/09 12:01:36;;;;;;;24.00;22.47;;;;;;;;;;5055239;28;20438;-94
2022/05/09 12:04:05;;;;;;;23.90;22.40;;;;;;;;;;5054654;28;20529;-93
2022/05/09 12:06:42;;;;;;;23.70;22.20;;;;;;;;;;5054607;28;20449;-94
2022/05/09 12:09:11;;;;;;;23.03;21.70;;;;;;;;;;5054750;28;20450;-94
2022/05/09 12:11:51;;;;;;;23.17;21.80;;;;;;;;;;5055323;28;20406;-96
2022/05/09 12:14:37;;;;;;;24.03;22.20;;;;;;;;;;5055265;28;20437;-95
2022/05/09 12:17:17;;;;;;;22.60;21.30;;;;;;;;;;5055166;28;20460;-95
2022/05/09 12:19:47;;;;;;;23.57;21.97;;;;;;;;;;5055367;28;20422;-95
2022/05/09 12:22:35;;;;;;;23.40;22.00;;;;;;;;;;5056093;28;20453;-95
2022/05/09 12:25:03;;;;;;;23.60;22.20;;;;;;;;;;5051035;28;20446;-95
2022/05/09 12:28:03;;;;;;;25.10;23.40;;;;;;;;;;5056669;28;20436;-95
2022/05/09 12:30:41;;;;;;;23.07;21.70;;;;;;;;;;4976371;28;20430;-95
2022/05/09 12:33:14;;;;;;;24.10;22.63;;;;;;;;;;4975525;28;20838;-96
2022/05/09 12:35:44;;;;;;;24.53;23.03;;;;;;;;;;4957973;28;20501;-95
2022/05/09 12:38:12;;;;;;;24.80;23.30;;;;;;;;;;4974702;28;20455;-95
2022/05/09 12:40:39;;;;;;;25.03;23.53;;;;;;;;;;4975505;28;20490;-96
2022/05/09 12:43:08;;;;;;;24.20;22.70;;;;;;;;;;4976631;28;20504;-95
2022/05/09 12:45:36;;;;;;;24.10;22.60;;;;;;;;;;4976787;28;20441;-96
2022/05/09 12:48:03;;;;;;;25.00;23.30;;;;;;;;;;4975650;28;20425;-95
2022/05/09 12:50:33;;;;;;;24.80;23.30;;;;;;;;;;4962186;28;20488;-96
2022/05/09 12:53:03;;;;;;;24.27;22.77;;;;;;;;;;4954860;29;20526;-96
2022/05/09 12:58:32;;;;;;;24.87;23.17;;;;;;;;;;4932525;29;20457;-95
2022/05/09 13:01:01;;;;;;;24.30;22.30;;;;;;;;;;4917222;29;20436;-92
2022/05/09 13:03:29;;;;;;;24.23;22.57;;;;;;;;;;4918319;28;20499;-96
2022/05/09 13:05:56;;;;;;;23.60;22.20;;;;;;;;;;4973772;28;20478;-95
2022/05/09 13:08:26;;;;;;;23.47;21.97;;;;;;;;;;4973486;28;20508;-96
2022/05/09 13:10:55;;;;;;;24.40;22.80;;;;;;;;;;4973658;28;20447;-94
2022/05/09 13:13:26;;;;;;;23.90;22.60;;;;;;;;;;4973443;28;20504;-96
2022/05/09 13:15:54;;;;;;;23.90;22.50;;;;;;;;;;4973474;28;20815;-96
2022/05/09 13:18:23;;;;;;;24.13;22.60;;;;;;;;;;4973682;28;20533;-96
2022/05/09 13:20:51;;;;;;;25.00;22.90;;;;;;;;;;4973356;28;20494;-96
2022/05/09 13:23:18;;;;;;;25.17;23.53;;;;;;;;;;4973444;28;20513;-96
2022/05/09 13:25:51;;;;;;;24.00;22.50;;;;;;;;;;4974037;28;20440;-96
2022/05/09 13:28:20;;;;;;;23.33;21.90;;;;;;;;;;4973418;28;20435;-96
2022/05/09 13:30:48;;;;;;;24.20;22.27;;;;;;;;;;4973553;28;20501;-96
2022/05/09 13:33:17;;;;;;;25.13;23.63;;;;;;;;;;5018439;28;20905;-96
2022/05/09 13:35:48;;;;;;;24.27;22.83;;;;;;;;;;5033930;28;20452;-96
2022/05/09 13:38:19;;;;;;;24.83;23.37;;;;;;;;;;5033749;28;20575;-92
2022/05/09 13:40:47;;;;;;;24.87;23.13;;;;;;;;;;5033597;28;20438;-92
2022/05/09 13:43:18;;;;;;;22.93;21.63;;;;;;;;;;5033887;28;20495;-93
2022/05/09 13:45:46;;;;;;;23.80;22.13;;;;;;;;;;5033886;28;20439;-92
2022/05/09 13:48:20;;;;;;;24.57;22.97;;;;;;;;;;5034177;28;20456;-92
2022/05/09 13:50:50;;;;;;;25.00;23.30;;;;;;;;;;5044867;28;20453;-92
2022/05/09 13:53:21;;;;;;;24.17;22.73;;;;;;;;;;5073882;28;20817;-93
2022/05/09 13:55:50;;;;;;;24.90;23.30;;;;;;;;;;5073448;28;20405;-93
2022/05/09 13:58:22;;;;;;;24.20;22.70;;;;;;;;;;5073865;28;20449;-92
2022/05/09 14:00:51;;;;;;;24.70;23.20;;;;;;;;;;5074098;28;20805;-93
2022/05/09 14:03:23;;;;;;;23.83;22.50;;;;;;;;;;5059386;28;21017;-93
2022/05/09 14:05:51;;;;;;;24.43;22.93;;;;;;;;;;5077560;28;20827;-93
2022/05/09 14:08:19;;;;;;;23.87;22.40;;;;;;;;;;5077171;28;20442;-93
2022/05/09 14:10:47;;;;;;;23.90;22.37;;;;;;;;;;5076876;28;20437;-92
2022/05/09 14:13:31;;;;;;;24.03;22.50;;;;;;;;;;5059768;28;20417;-93
2022/05/09 14:16:00;;;;;;;23.53;22.23;;;;;;;;;;5077086;28;20439;-92
2022/05/09 14:18:30;;;;;;;25.00;23.50;;;;;;;;;;5077207;28;20457;-93
2022/05/09 14:21:01;;;;;;;24.40;23.00;;;;;;;;;;5059102;28;20825;-92
2022/05/09 14:23:28;;;;;;;23.50;22.20;;;;;;;;;;5076591;28;20972;-91
2022/05/09 14:31:43;;;;;;;22.57;21.27;;;;;;;;;;5036068;28;20563;-94
2022/05/09 14:34:31;;;;;;;24.13;22.47;;;;;;;;;;5036556;28;20456;-96
2022/05/09 14:37:17;;;;;;;22.73;21.50;;;;;;;;;;5036164;28;20415;-94
2022/05/09 14:39:46;;;;;;;24.40;22.93;;;;;;;;;;5018398;28;20957;-93
2022/05/09 14:42:14;;;;;;;23.27;21.97;;;;;;;;;;5034679;28;20411;-92
2022/05/09 14:44:44;;;;;;;23.90;22.40;;;;;;;;;;5034729;28;20498;-93
2022/05/09 14:47:16;;;;;;;24.47;23.07;;;;;;;;;;5032332;28;20423;-94
2022/05/09 14:49:45;;;;;;;23.20;21.70;;;;;;;;;;5034934;28;20475;-93
2022/05/09 14:52:15;;;;;;;23.80;22.07;;;;;;;;;;5034978;28;20455;-91
2022/05/09 14:54:44;;;;;;;24.50;23.03;;;;;;;;;;5034917;28;20455;-91
2022/05/09 14:57:25;;;;;;;24.50;22.90;;;;;;;;;;5034242;28;20874;-93
2022/05/09 14:59:59;;;;;;;24.20;22.80;;;;;;;;;;5034529;28;20452;-94